Terminal Aerodrome Forecast
Issued by NWS Memphis, TN

Home | Current Version | Previous Version | Text Only | Print | Product List | Glossary On
Versions: 1 2 3 4 5 6 7 8 9 10 11 12 13 14 15 16 17 18 19 20 21 22 23 24 25 26 27 28 29 30
778
FTUS44 KMEG 231130
TAFMEM
TAF
KMEM 231130Z 2312/2418 24010KT 5SM -DZ BR OVC005
      TEMPO 2316/2320 30006KT 3SM -SHRA BR OVC003
     FM232000 VRB04KT 6SM BR VCSH OVC008
     FM240100 VRB02KT P6SM VCSH SCT008 BKN012 OVC025
     FM240500 34005KT 3SM BR OVC003
     FM241400 31007KT 6SM BR VCSH SCT003 OVC007=

USA.gov is the U.S. government's official web portal to all federal, state and local government web resources and services.